sensor_id;sensor_type;location;lat;lon;timestamp;P1;durP1;ratioP1;P2;durP2;ratioP2
56233;SDS011;42141;53.240;6.580;2023-05-10T00:01:23;8.70;;;7.78;;
56233;SDS011;42141;53.240;6.580;2023-05-10T00:03:49;9.25;;;8.25;;
56233;SDS011;42141;53.240;6.580;2023-05-10T00:06:15;12.20;;;7.82;;
56233;SDS011;42141;53.240;6.580;2023-05-10T00:08:41;8.18;;;7.22;;
56233;SDS011;42141;53.240;6.580;2023-05-10T00:11:06;8.65;;;7.75;;
56233;SDS011;42141;53.240;6.580;2023-05-10T00:13:32;7.65;;;6.93;;
56233;SDS011;42141;53.240;6.580;2023-05-10T00:15:59;8.80;;;7.30;;
56233;SDS011;42141;53.240;6.580;2023-05-10T00:18:25;9.07;;;7.82;;
56233;SDS011;42141;53.240;6.580;2023-05-10T00:20:50;8.65;;;7.38;;
56233;SDS011;42141;53.240;6.580;2023-05-10T00:23:16;9.10;;;7.75;;
56233;SDS011;42141;53.240;6.580;2023-05-10T00:25:42;10.00;;;7.90;;
56233;SDS011;42141;53.240;6.580;2023-05-10T00:28:07;8.82;;;7.03;;
56233;SDS011;42141;53.240;6.580;2023-05-10T00:30:33;8.13;;;6.60;;
56233;SDS011;42141;53.240;6.580;2023-05-10T00:32:59;9.40;;;6.38;;
56233;SDS011;42141;53.240;6.580;2023-05-10T00:35:25;7.75;;;6.65;;
56233;SDS011;42141;53.240;6.580;2023-05-10T00:37:51;8.55;;;6.65;;
56233;SDS011;42141;53.240;6.580;2023-05-10T00:40:16;9.32;;;6.75;;
56233;SDS011;42141;53.240;6.580;2023-05-10T00:42:42;9.10;;;6.47;;
56233;SDS011;42141;53.240;6.580;2023-05-10T00:45:08;6.55;;;5.80;;
56233;SDS011;42141;53.240;6.580;2023-05-10T00:47:34;6.70;;;5.97;;
56233;SDS011;42141;53.240;6.580;2023-05-10T00:50:00;7.15;;;6.30;;
56233;SDS011;42141;53.240;6.580;2023-05-10T00:52:27;8.02;;;6.28;;
56233;SDS011;42141;53.240;6.580;2023-05-10T00:54:54;6.53;;;5.60;;
56233;SDS011;42141;53.240;6.580;2023-05-10T00:57:20;7.80;;;6.28;;
56233;SDS011;42141;53.240;6.580;2023-05-10T00:59:46;7.82;;;6.50;;
56233;SDS011;42141;53.240;6.580;2023-05-10T01:02:13;6.57;;;5.57;;
56233;SDS011;42141;53.240;6.580;2023-05-10T01:04:39;6.50;;;5.72;;
56233;SDS011;42141;53.240;6.580;2023-05-10T01:07:05;8.95;;;6.30;;
56233;SDS011;42141;53.240;6.580;2023-05-10T01:09:31;6.65;;;5.78;;
56233;SDS011;42141;53.240;6.580;2023-05-10T01:11:57;7.50;;;6.10;;
56233;SDS011;42141;53.240;6.580;2023-05-10T01:14:24;6.50;;;5.72;;
56233;SDS011;42141;53.240;6.580;2023-05-10T01:16:51;6.60;;;5.90;;
56233;SDS011;42141;53.240;6.580;2023-05-10T01:19:19;8.07;;;6.35;;
56233;SDS011;42141;53.240;6.580;2023-05-10T01:24:46;8.07;;;6.80;;
56233;SDS011;42141;53.240;6.580;2023-05-10T01:28:07;6.43;;;5.65;;
56233;SDS011;42141;53.240;6.580;2023-05-10T01:35:14;8.10;;;6.90;;
56233;SDS011;42141;53.240;6.580;2023-05-10T01:37:58;8.73;;;6.40;;
56233;SDS011;42141;53.240;6.580;2023-05-10T01:40:32;7.90;;;6.22;;
56233;SDS011;42141;53.240;6.580;2023-05-10T01:43:03;8.40;;;6.28;;
56233;SDS011;42141;53.240;6.580;2023-05-10T01:48:10;7.88;;;6.60;;
56233;SDS011;42141;53.240;6.580;2023-05-10T01:50:37;11.07;;;6.30;;
56233;SDS011;42141;53.240;6.580;2023-05-10T01:53:08;6.20;;;5.40;;
56233;SDS011;42141;53.240;6.580;2023-05-10T01:55:41;8.27;;;6.22;;
56233;SDS011;42141;53.240;6.580;2023-05-10T01:58:17;7.47;;;6.50;;
56233;SDS011;42141;53.240;6.580;2023-05-10T02:00:55;9.02;;;6.57;;
56233;SDS011;42141;53.240;6.580;2023-05-10T02:03:24;7.25;;;6.22;;
56233;SDS011;42141;53.240;6.580;2023-05-10T02:05:52;7.57;;;6.20;;
56233;SDS011;42141;53.240;6.580;2023-05-10T02:08:20;7.30;;;6.60;;
56233;SDS011;42141;53.240;6.580;2023-05-10T02:10:47;7.90;;;6.07;;
56233;SDS011;42141;53.240;6.580;2023-05-10T02:13:16;7.25;;;6.03;;
56233;SDS011;42141;53.240;6.580;2023-05-10T02:15:45;7.45;;;6.20;;
56233;SDS011;42141;53.240;6.580;2023-05-10T02:18:13;8.48;;;6.57;;
56233;SDS011;42141;53.240;6.580;2023-05-10T02:20:40;6.93;;;6.13;;
56233;SDS011;42141;53.240;6.580;2023-05-10T02:23:08;7.05;;;5.97;;
56233;SDS011;42141;53.240;6.580;2023-05-10T02:25:34;6.53;;;5.90;;
56233;SDS011;42141;53.240;6.580;2023-05-10T02:28:02;6.25;;;5.45;;
56233;SDS011;42141;53.240;6.580;2023-05-10T02:30:31;6.28;;;5.68;;
56233;SDS011;42141;53.240;6.580;2023-05-10T02:32:58;9.70;;;5.32;;
56233;SDS011;42141;53.240;6.580;2023-05-10T02:35:25;7.45;;;5.53;;
56233;SDS011;42141;53.240;6.580;2023-05-10T02:37:52;8.35;;;6.00;;
56233;SDS011;42141;53.240;6.580;2023-05-10T02:40:18;7.22;;;5.32;;
56233;SDS011;42141;53.240;6.580;2023-05-10T02:42:47;6.68;;;5.93;;
56233;SDS011;42141;53.240;6.580;2023-05-10T02:45:15;9.30;;;6.13;;
56233;SDS011;42141;53.240;6.580;2023-05-10T02:47:44;6.65;;;5.97;;
56233;SDS011;42141;53.240;6.580;2023-05-10T02:50:10;8.27;;;6.47;;
56233;SDS011;42141;53.240;6.580;2023-05-10T02:52:38;9.75;;;7.10;;
56233;SDS011;42141;53.240;6.580;2023-05-10T02:55:09;9.18;;;6.95;;
56233;SDS011;42141;53.240;6.580;2023-05-10T02:57:40;8.45;;;6.90;;
56233;SDS011;42141;53.240;6.580;2023-05-10T03:00:27;10.13;;;7.85;;
56233;SDS011;42141;53.240;6.580;2023-05-10T03:02:53;13.23;;;7.80;;
56233;SDS011;42141;53.240;6.580;2023-05-10T03:05:19;10.98;;;7.88;;
56233;SDS011;42141;53.240;6.580;2023-05-10T03:07:45;11.98;;;8.07;;
56233;SDS011;42141;53.240;6.580;2023-05-10T03:10:12;11.70;;;8.70;;
56233;SDS011;42141;53.240;6.580;2023-05-10T03:18:23;15.23;;;9.27;;
56233;SDS011;42141;53.240;6.580;2023-05-10T03:20:59;12.43;;;8.93;;
56233;SDS011;42141;53.240;6.580;2023-05-10T03:23:46;11.82;;;9.25;;
56233;SDS011;42141;53.240;6.580;2023-05-10T03:26:20;14.55;;;9.88;;
56233;SDS011;42141;53.240;6.580;2023-05-10T03:28:51;15.15;;;9.95;;
56233;SDS011;42141;53.240;6.580;2023-05-10T03:31:18;14.70;;;10.40;;
56233;SDS011;42141;53.240;6.580;2023-05-10T03:33:47;12.80;;;10.32;;
56233;SDS011;42141;53.240;6.580;2023-05-10T03:36:17;15.00;;;10.25;;
56233;SDS011;42141;53.240;6.580;2023-05-10T03:38:43;14.32;;;10.75;;
56233;SDS011;42141;53.240;6.580;2023-05-10T03:41:09;13.57;;;11.38;;
56233;SDS011;42141;53.240;6.580;2023-05-10T03:43:35;15.32;;;11.15;;
56233;SDS011;42141;53.240;6.580;2023-05-10T03:46:05;17.17;;;11.00;;
56233;SDS011;42141;53.240;6.580;2023-05-10T03:48:31;15.70;;;10.90;;
56233;SDS011;42141;53.240;6.580;2023-05-10T03:50:57;16.33;;;11.02;;
56233;SDS011;42141;53.240;6.580;2023-05-10T03:53:23;16.48;;;10.65;;
56233;SDS011;42141;53.240;6.580;2023-05-10T03:55:49;18.02;;;11.60;;
56233;SDS011;42141;53.240;6.580;2023-05-10T03:58:15;15.13;;;11.15;;
56233;SDS011;42141;53.240;6.580;2023-05-10T04:00:41;20.52;;;11.13;;
56233;SDS011;42141;53.240;6.580;2023-05-10T04:03:10;14.52;;;10.85;;
56233;SDS011;42141;53.240;6.580;2023-05-10T04:05:36;15.85;;;11.02;;
56233;SDS011;42141;53.240;6.580;2023-05-10T04:08:02;13.27;;;9.07;;
56233;SDS011;42141;53.240;6.580;2023-05-10T04:10:28;11.68;;;8.70;;
56233;SDS011;42141;53.240;6.580;2023-05-10T04:12:54;11.68;;;8.13;;
56233;SDS011;42141;53.240;6.580;2023-05-10T04:15:19;10.73;;;7.45;;
56233;SDS011;42141;53.240;6.580;2023-05-10T04:17:45;10.98;;;6.90;;
56233;SDS011;42141;53.240;6.580;2023-05-10T04:20:11;8.38;;;6.72;;
56233;SDS011;42141;53.240;6.580;2023-05-10T04:22:37;10.52;;;6.20;;
56233;SDS011;42141;53.240;6.580;2023-05-10T04:25:03;8.10;;;6.32;;
56233;SDS011;42141;53.240;6.580;2023-05-10T04:27:30;5.72;;;4.43;;
56233;SDS011;42141;53.240;6.580;2023-05-10T04:29:56;5.82;;;4.93;;
56233;SDS011;42141;53.240;6.580;2023-05-10T04:32:22;5.70;;;5.03;;
56233;SDS011;42141;53.240;6.580;2023-05-10T04:34:48;7.90;;;4.38;;
56233;SDS011;42141;53.240;6.580;2023-05-10T04:37:14;6.43;;;4.65;;
56233;SDS011;42141;53.240;6.580;2023-05-10T04:39:40;7.03;;;4.30;;
56233;SDS011;42141;53.240;6.580;2023-05-10T04:42:05;7.78;;;4.45;;
56233;SDS011;42141;53.240;6.580;2023-05-10T04:44:34;6.20;;;4.68;;
56233;SDS011;42141;53.240;6.580;2023-05-10T04:47:00;5.85;;;4.20;;
56233;SDS011;42141;53.240;6.580;2023-05-10T04:49:27;5.25;;;4.22;;
56233;SDS011;42141;53.240;6.580;2023-05-10T04:51:53;6.18;;;4.30;;
56233;SDS011;42141;53.240;6.580;2023-05-10T04:54:19;6.00;;;4.10;;
56233;SDS011;42141;53.240;6.580;2023-05-10T04:56:45;4.95;;;4.43;;
56233;SDS011;42141;53.240;6.580;2023-05-10T04:59:10;4.78;;;4.28;;
56233;SDS011;42141;53.240;6.580;2023-05-10T05:01:36;5.53;;;3.95;;
56233;SDS011;42141;53.240;6.580;2023-05-10T05:04:02;7.40;;;4.47;;
56233;SDS011;42141;53.240;6.580;2023-05-10T05:06:28;4.93;;;3.95;;
56233;SDS011;42141;53.240;6.580;2023-05-10T05:08:53;7.68;;;3.97;;
56233;SDS011;42141;53.240;6.580;2023-05-10T05:11:19;5.88;;;3.30;;
56233;SDS011;42141;53.240;6.580;2023-05-10T05:13:46;4.00;;;3.60;;
56233;SDS011;42141;53.240;6.580;2023-05-10T05:16:11;4.57;;;3.75;;
56233;SDS011;42141;53.240;6.580;2023-05-10T05:18:37;6.75;;;4.10;;
56233;SDS011;42141;53.240;6.580;2023-05-10T05:21:03;4.63;;;3.45;;
56233;SDS011;42141;53.240;6.580;2023-05-10T05:23:38;5.50;;;3.50;;
56233;SDS011;42141;53.240;6.580;2023-05-10T05:26:03;5.15;;;3.67;;
56233;SDS011;42141;53.240;6.580;2023-05-10T05:28:29;4.45;;;3.33;;
56233;SDS011;42141;53.240;6.580;2023-05-10T05:30:57;5.50;;;3.58;;
56233;SDS011;42141;53.240;6.580;2023-05-10T05:33:23;5.75;;;3.50;;
56233;SDS011;42141;53.240;6.580;2023-05-10T05:35:49;4.03;;;3.63;;
56233;SDS011;42141;53.240;6.580;2023-05-10T05:38:16;5.88;;;3.30;;
56233;SDS011;42141;53.240;6.580;2023-05-10T05:40:42;5.10;;;3.72;;
56233;SDS011;42141;53.240;6.580;2023-05-10T05:43:08;3.92;;;3.15;;
56233;SDS011;42141;53.240;6.580;2023-05-10T05:45:34;4.32;;;3.20;;
56233;SDS011;42141;53.240;6.580;2023-05-10T05:48:00;3.95;;;3.40;;
56233;SDS011;42141;53.240;6.580;2023-05-10T05:50:25;3.70;;;3.22;;
56233;SDS011;42141;53.240;6.580;2023-05-10T05:52:51;6.50;;;4.05;;
56233;SDS011;42141;53.240;6.580;2023-05-10T05:55:16;3.28;;;2.75;;
56233;SDS011;42141;53.240;6.580;2023-05-10T05:57:42;4.18;;;2.85;;
56233;SDS011;42141;53.240;6.580;2023-05-10T06:00:08;9.25;;;3.28;;
56233;SDS011;42141;53.240;6.580;2023-05-10T06:02:34;3.05;;;2.10;;
56233;SDS011;42141;53.240;6.580;2023-05-10T06:05:00;3.00;;;2.22;;
56233;SDS011;42141;53.240;6.580;2023-05-10T06:07:25;3.03;;;2.22;;
56233;SDS011;42141;53.240;6.580;2023-05-10T06:09:51;2.72;;;1.90;;
56233;SDS011;42141;53.240;6.580;2023-05-10T06:12:17;1.77;;;1.27;;
56233;SDS011;42141;53.240;6.580;2023-05-10T06:14:42;1.05;;;0.93;;
56233;SDS011;42141;53.240;6.580;2023-05-10T06:17:08;1.20;;;1.10;;
56233;SDS011;42141;53.240;6.580;2023-05-10T06:19:34;2.05;;;0.70;;
56233;SDS011;42141;53.240;6.580;2023-05-10T06:22:00;0.57;;;0.57;;
56233;SDS011;42141;53.240;6.580;2023-05-10T06:24:26;1.33;;;0.70;;
56233;SDS011;42141;53.240;6.580;2023-05-10T06:26:52;0.50;;;0.50;;
56233;SDS011;42141;53.240;6.580;2023-05-10T06:29:18;0.75;;;0.47;;
56233;SDS011;42141;53.240;6.580;2023-05-10T06:31:45;4.13;;;3.10;;
56233;SDS011;42141;53.240;6.580;2023-05-10T06:34:10;1.73;;;1.00;;
56233;SDS011;42141;53.240;6.580;2023-05-10T06:36:36;1.40;;;1.25;;
56233;SDS011;42141;53.240;6.580;2023-05-10T06:39:02;3.20;;;1.80;;
56233;SDS011;42141;53.240;6.580;2023-05-10T06:41:28;4.65;;;2.08;;
56233;SDS011;42141;53.240;6.580;2023-05-10T06:43:54;5.00;;;4.15;;
56233;SDS011;42141;53.240;6.580;2023-05-10T06:46:19;8.55;;;6.10;;
56233;SDS011;42141;53.240;6.580;2023-05-10T06:48:45;10.00;;;6.13;;
56233;SDS011;42141;53.240;6.580;2023-05-10T06:51:11;7.47;;;6.55;;
56233;SDS011;42141;53.240;6.580;2023-05-10T06:53:36;7.43;;;6.35;;
56233;SDS011;42141;53.240;6.580;2023-05-10T06:56:02;7.65;;;6.70;;
56233;SDS011;42141;53.240;6.580;2023-05-10T06:58:28;9.35;;;8.35;;
56233;SDS011;42141;53.240;6.580;2023-05-10T07:00:54;11.63;;;8.85;;
56233;SDS011;42141;53.240;6.580;2023-05-10T07:03:19;11.88;;;8.57;;
56233;SDS011;42141;53.240;6.580;2023-05-10T07:05:45;13.50;;;9.48;;
56233;SDS011;42141;53.240;6.580;2023-05-10T07:08:11;10.85;;;8.55;;
56233;SDS011;42141;53.240;6.580;2023-05-10T07:10:36;12.48;;;8.82;;
56233;SDS011;42141;53.240;6.580;2023-05-10T07:13:02;13.43;;;8.82;;
56233;SDS011;42141;53.240;6.580;2023-05-10T07:15:28;8.85;;;6.88;;
56233;SDS011;42141;53.240;6.580;2023-05-10T07:17:54;10.50;;;6.22;;
56233;SDS011;42141;53.240;6.580;2023-05-10T07:20:20;8.23;;;5.60;;
56233;SDS011;42141;53.240;6.580;2023-05-10T07:22:46;6.47;;;4.80;;
56233;SDS011;42141;53.240;6.580;2023-05-10T07:25:11;5.43;;;4.40;;
56233;SDS011;42141;53.240;6.580;2023-05-10T07:27:37;10.55;;;4.18;;
56233;SDS011;42141;53.240;6.580;2023-05-10T07:30:03;7.85;;;3.85;;
56233;SDS011;42141;53.240;6.580;2023-05-10T07:32:29;6.15;;;3.58;;
56233;SDS011;42141;53.240;6.580;2023-05-10T07:34:55;4.65;;;2.35;;
56233;SDS011;42141;53.240;6.580;2023-05-10T07:37:21;4.00;;;2.25;;
56233;SDS011;42141;53.240;6.580;2023-05-10T07:39:46;3.10;;;2.28;;
56233;SDS011;42141;53.240;6.580;2023-05-10T07:42:12;2.92;;;1.60;;
56233;SDS011;42141;53.240;6.580;2023-05-10T07:44:38;1.83;;;1.50;;
56233;SDS011;42141;53.240;6.580;2023-05-10T07:47:04;3.50;;;1.75;;
56233;SDS011;42141;53.240;6.580;2023-05-10T07:49:29;2.55;;;1.50;;
56233;SDS011;42141;53.240;6.580;2023-05-10T07:51:55;2.50;;;1.30;;
56233;SDS011;42141;53.240;6.580;2023-05-10T07:54:21;2.78;;;1.20;;
56233;SDS011;42141;53.240;6.580;2023-05-10T07:56:46;1.67;;;1.30;;
56233;SDS011;42141;53.240;6.580;2023-05-10T07:59:16;2.55;;;1.80;;
56233;SDS011;42141;53.240;6.580;2023-05-10T08:01:42;1.85;;;1.30;;
56233;SDS011;42141;53.240;6.580;2023-05-10T08:04:08;3.50;;;1.80;;
56233;SDS011;42141;53.240;6.580;2023-05-10T08:06:34;2.08;;;1.88;;
56233;SDS011;42141;53.240;6.580;2023-05-10T08:09:00;2.25;;;1.98;;
56233;SDS011;42141;53.240;6.580;2023-05-10T08:11:26;3.35;;;1.67;;
56233;SDS011;42141;53.240;6.580;2023-05-10T08:13:53;4.25;;;1.77;;
56233;SDS011;42141;53.240;6.580;2023-05-10T08:16:19;2.05;;;1.85;;
56233;SDS011;42141;53.240;6.580;2023-05-10T08:18:45;3.15;;;2.33;;
56233;SDS011;42141;53.240;6.580;2023-05-10T08:21:12;3.65;;;2.55;;
56233;SDS011;42141;53.240;6.580;2023-05-10T08:23:38;3.03;;;2.45;;
56233;SDS011;42141;53.240;6.580;2023-05-10T08:26:04;4.90;;;2.47;;
56233;SDS011;42141;53.240;6.580;2023-05-10T08:28:30;3.42;;;2.67;;
56233;SDS011;42141;53.240;6.580;2023-05-10T08:30:56;3.38;;;2.20;;
56233;SDS011;42141;53.240;6.580;2023-05-10T08:33:22;4.28;;;3.45;;
56233;SDS011;42141;53.240;6.580;2023-05-10T08:35:47;2.92;;;2.63;;
56233;SDS011;42141;53.240;6.580;2023-05-10T08:38:13;2.95;;;2.53;;
56233;SDS011;42141;53.240;6.580;2023-05-10T08:40:40;4.95;;;2.88;;
56233;SDS011;42141;53.240;6.580;2023-05-10T08:43:09;3.67;;;2.35;;
56233;SDS011;42141;53.240;6.580;2023-05-10T08:45:40;5.30;;;3.20;;
56233;SDS011;42141;53.240;6.580;2023-05-10T08:48:12;7.97;;;3.53;;
56233;SDS011;42141;53.240;6.580;2023-05-10T08:50:39;3.92;;;3.17;;
56233;SDS011;42141;53.240;6.580;2023-05-10T08:53:06;9.88;;;3.17;;
56233;SDS011;42141;53.240;6.580;2023-05-10T08:55:35;4.10;;;2.40;;
56233;SDS011;42141;53.240;6.580;2023-05-10T08:58:04;2.30;;;1.75;;
56233;SDS011;42141;53.240;6.580;2023-05-10T09:00:30;2.40;;;1.85;;
56233;SDS011;42141;53.240;6.580;2023-05-10T09:02:59;3.90;;;2.25;;
56233;SDS011;42141;53.240;6.580;2023-05-10T09:05:26;6.53;;;3.20;;
56233;SDS011;42141;53.240;6.580;2023-05-10T09:07:51;4.18;;;2.47;;
56233;SDS011;42141;53.240;6.580;2023-05-10T09:10:18;5.25;;;3.08;;
56233;SDS011;42141;53.240;6.580;2023-05-10T09:12:44;5.78;;;2.58;;
56233;SDS011;42141;53.240;6.580;2023-05-10T09:15:11;4.45;;;2.67;;
56233;SDS011;42141;53.240;6.580;2023-05-10T09:17:39;3.45;;;2.40;;
56233;SDS011;42141;53.240;6.580;2023-05-10T09:20:06;4.70;;;2.65;;
56233;SDS011;42141;53.240;6.580;2023-05-10T09:22:32;3.63;;;2.35;;
56233;SDS011;42141;53.240;6.580;2023-05-10T09:27:36;5.57;;;2.38;;
56233;SDS011;42141;53.240;6.580;2023-05-10T09:30:03;3.42;;;2.60;;
56233;SDS011;42141;53.240;6.580;2023-05-10T09:32:37;5.90;;;4.18;;
56233;SDS011;42141;53.240;6.580;2023-05-10T09:35:07;5.53;;;3.45;;
56233;SDS011;42141;53.240;6.580;2023-05-10T09:37:41;6.25;;;3.50;;
56233;SDS011;42141;53.240;6.580;2023-05-10T09:40:08;3.38;;;2.92;;
56233;SDS011;42141;53.240;6.580;2023-05-10T09:42:57;2.90;;;2.42;;
56233;SDS011;42141;53.240;6.580;2023-05-10T09:45:24;4.70;;;2.22;;
56233;SDS011;42141;53.240;6.580;2023-05-10T09:47:55;4.78;;;3.08;;
56233;SDS011;42141;53.240;6.580;2023-05-10T09:50:22;3.90;;;3.25;;
56233;SDS011;42141;53.240;6.580;2023-05-10T09:52:52;4.95;;;3.47;;
56233;SDS011;42141;53.240;6.580;2023-05-10T09:55:26;13.68;;;3.47;;
56233;SDS011;42141;53.240;6.580;2023-05-10T09:58:06;5.05;;;2.63;;
56233;SDS011;42141;53.240;6.580;2023-05-10T10:00:45;2.30;;;1.92;;
56233;SDS011;42141;53.240;6.580;2023-05-10T10:03:16;6.03;;;2.53;;
56233;SDS011;42141;53.240;6.580;2023-05-10T10:05:44;4.95;;;2.67;;
56233;SDS011;42141;53.240;6.580;2023-05-10T10:08:12;4.72;;;2.53;;
56233;SDS011;42141;53.240;6.580;2023-05-10T10:10:38;3.60;;;1.92;;
56233;SDS011;42141;53.240;6.580;2023-05-10T10:13:09;2.63;;;2.20;;
56233;SDS011;42141;53.240;6.580;2023-05-10T10:15:35;4.03;;;2.13;;
56233;SDS011;42141;53.240;6.580;2023-05-10T10:18:01;2.70;;;2.13;;
56233;SDS011;42141;53.240;6.580;2023-05-10T10:20:28;5.00;;;2.45;;
56233;SDS011;42141;53.240;6.580;2023-05-10T10:22:54;2.80;;;1.98;;
56233;SDS011;42141;53.240;6.580;2023-05-10T10:25:20;3.83;;;2.30;;
56233;SDS011;42141;53.240;6.580;2023-05-10T10:35:35;3.60;;;2.00;;
56233;SDS011;42141;53.240;6.580;2023-05-10T10:38:01;2.17;;;1.95;;
56233;SDS011;42141;53.240;6.580;2023-05-10T10:40:31;1.80;;;1.65;;
56233;SDS011;42141;53.240;6.580;2023-05-10T10:42:58;4.10;;;1.70;;
56233;SDS011;42141;53.240;6.580;2023-05-10T10:48:49;2.45;;;2.03;;
56233;SDS011;42141;53.240;6.580;2023-05-10T10:51:36;3.75;;;1.85;;
56233;SDS011;42141;53.240;6.580;2023-05-10T10:54:11;4.15;;;2.50;;
56233;SDS011;42141;53.240;6.580;2023-05-10T10:56:37;5.22;;;2.40;;
56233;SDS011;42141;53.240;6.580;2023-05-10T10:59:03;3.88;;;2.88;;
56233;SDS011;42141;53.240;6.580;2023-05-10T11:01:32;4.97;;;2.88;;
56233;SDS011;42141;53.240;6.580;2023-05-10T11:06:32;5.70;;;2.85;;
56233;SDS011;42141;53.240;6.580;2023-05-10T11:09:00;3.78;;;2.85;;
56233;SDS011;42141;53.240;6.580;2023-05-10T11:11:31;7.28;;;3.20;;
56233;SDS011;42141;53.240;6.580;2023-05-10T11:14:02;7.55;;;3.50;;
56233;SDS011;42141;53.240;6.580;2023-05-10T11:16:29;3.83;;;3.35;;
56233;SDS011;42141;53.240;6.580;2023-05-10T11:19:07;4.65;;;3.80;;
56233;SDS011;42141;53.240;6.580;2023-05-10T11:21:44;5.45;;;4.55;;
56233;SDS011;42141;53.240;6.580;2023-05-10T11:24:14;6.15;;;5.03;;
56233;SDS011;42141;53.240;6.580;2023-05-10T11:26:44;5.60;;;4.53;;
56233;SDS011;42141;53.240;6.580;2023-05-10T11:29:10;5.50;;;4.43;;
56233;SDS011;42141;53.240;6.580;2023-05-10T11:31:41;8.32;;;4.80;;
56233;SDS011;42141;53.240;6.580;2023-05-10T11:34:09;7.63;;;5.30;;
56233;SDS011;42141;53.240;6.580;2023-05-10T11:36:35;9.93;;;5.35;;
56233;SDS011;42141;53.240;6.580;2023-05-10T11:39:02;10.80;;;5.78;;
56233;SDS011;42141;53.240;6.580;2023-05-10T11:41:29;5.60;;;4.90;;
56233;SDS011;42141;53.240;6.580;2023-05-10T11:43:56;9.25;;;5.90;;
56233;SDS011;42141;53.240;6.580;2023-05-10T11:46:23;6.32;;;5.07;;
56233;SDS011;42141;53.240;6.580;2023-05-10T11:48:52;9.93;;;5.60;;
56233;SDS011;42141;53.240;6.580;2023-05-10T11:51:34;6.93;;;5.20;;
56233;SDS011;42141;53.240;6.580;2023-05-10T11:54:01;10.15;;;6.40;;
56233;SDS011;42141;53.240;6.580;2023-05-10T11:56:34;9.52;;;5.68;;
56233;SDS011;42141;53.240;6.580;2023-05-10T11:59:01;9.45;;;5.80;;
56233;SDS011;42141;53.240;6.580;2023-05-10T12:01:27;9.25;;;5.63;;
56233;SDS011;42141;53.240;6.580;2023-05-10T12:03:55;8.70;;;5.68;;
56233;SDS011;42141;53.240;6.580;2023-05-10T12:06:31;6.90;;;5.07;;
56233;SDS011;42141;53.240;6.580;2023-05-10T12:09:01;13.63;;;5.78;;
56233;SDS011;42141;53.240;6.580;2023-05-10T12:11:31;7.18;;;5.45;;
56233;SDS011;42141;53.240;6.580;2023-05-10T12:13:57;7.30;;;5.85;;
56233;SDS011;42141;53.240;6.580;2023-05-10T12:16:24;9.07;;;5.90;;
56233;SDS011;42141;53.240;6.580;2023-05-10T12:18:51;9.60;;;6.18;;
56233;SDS011;42141;53.240;6.580;2023-05-10T12:21:18;9.70;;;7.32;;
56233;SDS011;42141;53.240;6.580;2023-05-10T12:23:45;11.27;;;7.00;;
56233;SDS011;42141;53.240;6.580;2023-05-10T12:26:12;14.68;;;7.32;;
56233;SDS011;42141;53.240;6.580;2023-05-10T12:28:38;12.43;;;7.25;;
56233;SDS011;42141;53.240;6.580;2023-05-10T12:31:07;12.20;;;8.15;;
56233;SDS011;42141;53.240;6.580;2023-05-10T12:33:37;14.18;;;8.15;;
56233;SDS011;42141;53.240;6.580;2023-05-10T12:36:10;12.73;;;7.78;;
56233;SDS011;42141;53.240;6.580;2023-05-10T12:38:41;10.98;;;7.72;;
56233;SDS011;42141;53.240;6.580;2023-05-10T12:41:12;11.48;;;7.50;;
56233;SDS011;42141;53.240;6.580;2023-05-10T12:43:41;9.55;;;7.30;;
56233;SDS011;42141;53.240;6.580;2023-05-10T12:46:16;8.13;;;7.28;;
56233;SDS011;42141;53.240;6.580;2023-05-10T12:48:43;10.48;;;7.80;;
56233;SDS011;42141;53.240;6.580;2023-05-10T12:51:10;8.82;;;7.13;;
56233;SDS011;42141;53.240;6.580;2023-05-10T12:53:42;11.05;;;7.65;;
56233;SDS011;42141;53.240;6.580;2023-05-10T12:56:10;21.67;;;15.43;;
56233;SDS011;42141;53.240;6.580;2023-05-10T12:58:36;11.30;;;8.48;;
56233;SDS011;42141;53.240;6.580;2023-05-10T13:01:02;8.55;;;6.93;;
56233;SDS011;42141;53.240;6.580;2023-05-10T13:03:29;10.68;;;6.82;;
56233;SDS011;42141;53.240;6.580;2023-05-10T13:05:55;9.10;;;6.75;;
56233;SDS011;42141;53.240;6.580;2023-05-10T13:08:21;9.63;;;6.50;;
56233;SDS011;42141;53.240;6.580;2023-05-10T13:10:46;8.15;;;6.00;;
56233;SDS011;42141;53.240;6.580;2023-05-10T13:13:13;8.95;;;6.57;;
56233;SDS011;42141;53.240;6.580;2023-05-10T13:15:40;8.98;;;6.38;;
56233;SDS011;42141;53.240;6.580;2023-05-10T13:18:05;6.80;;;5.57;;
56233;SDS011;42141;53.240;6.580;2023-05-10T13:20:31;9.07;;;6.20;;
56233;SDS011;42141;53.240;6.580;2023-05-10T13:22:57;10.13;;;6.43;;
56233;SDS011;42141;53.240;6.580;2023-05-10T13:25:23;7.75;;;5.88;;
56233;SDS011;42141;53.240;6.580;2023-05-10T13:27:48;9.18;;;6.97;;
56233;SDS011;42141;53.240;6.580;2023-05-10T13:30:14;9.50;;;6.45;;
56233;SDS011;42141;53.240;6.580;2023-05-10T13:32:40;9.98;;;7.00;;
56233;SDS011;42141;53.240;6.580;2023-05-10T13:35:06;6.57;;;5.57;;
56233;SDS011;42141;53.240;6.580;2023-05-10T13:37:33;9.80;;;6.03;;
56233;SDS011;42141;53.240;6.580;2023-05-10T13:40:02;9.25;;;5.60;;
56233;SDS011;42141;53.240;6.580;2023-05-10T13:42:29;8.30;;;6.00;;
56233;SDS011;42141;53.240;6.580;2023-05-10T13:44:54;7.47;;;4.60;;
56233;SDS011;42141;53.240;6.580;2023-05-10T13:47:20;8.95;;;4.65;;
56233;SDS011;42141;53.240;6.580;2023-05-10T13:49:47;6.90;;;4.43;;
56233;SDS011;42141;53.240;6.580;2023-05-10T13:52:13;10.57;;;5.68;;
56233;SDS011;42141;53.240;6.580;2023-05-10T13:54:38;14.82;;;5.05;;
56233;SDS011;42141;53.240;6.580;2023-05-10T13:57:04;8.05;;;5.20;;
56233;SDS011;42141;53.240;6.580;2023-05-10T13:59:30;25.48;;;5.63;;
56233;SDS011;42141;53.240;6.580;2023-05-10T14:01:59;7.43;;;4.85;;
56233;SDS011;42141;53.240;6.580;2023-05-10T14:04:29;13.40;;;5.32;;
56233;SDS011;42141;53.240;6.580;2023-05-10T14:06:55;7.93;;;5.18;;
56233;SDS011;42141;53.240;6.580;2023-05-10T14:09:21;8.48;;;5.53;;
56233;SDS011;42141;53.240;6.580;2023-05-10T14:11:47;6.03;;;5.38;;
56233;SDS011;42141;53.240;6.580;2023-05-10T14:14:12;9.43;;;6.00;;
56233;SDS011;42141;53.240;6.580;2023-05-10T14:16:41;9.90;;;5.38;;
56233;SDS011;42141;53.240;6.580;2023-05-10T14:19:08;8.90;;;5.97;;
56233;SDS011;42141;53.240;6.580;2023-05-10T14:21:34;13.73;;;9.45;;
56233;SDS011;42141;53.240;6.580;2023-05-10T14:24:00;9.43;;;5.90;;
56233;SDS011;42141;53.240;6.580;2023-05-10T14:26:26;12.57;;;6.07;;
56233;SDS011;42141;53.240;6.580;2023-05-10T14:28:52;9.73;;;5.43;;
56233;SDS011;42141;53.240;6.580;2023-05-10T14:31:18;11.15;;;5.68;;
56233;SDS011;42141;53.240;6.580;2023-05-10T14:33:45;9.38;;;5.80;;
56233;SDS011;42141;53.240;6.580;2023-05-10T14:36:12;14.07;;;6.50;;
56233;SDS011;42141;53.240;6.580;2023-05-10T14:38:38;12.75;;;7.70;;
56233;SDS011;42141;53.240;6.580;2023-05-10T14:41:04;7.85;;;5.80;;
56233;SDS011;42141;53.240;6.580;2023-05-10T14:43:30;7.45;;;6.38;;
56233;SDS011;42141;53.240;6.580;2023-05-10T14:45:56;10.15;;;6.72;;
56233;SDS011;42141;53.240;6.580;2023-05-10T14:48:22;10.35;;;6.93;;
56233;SDS011;42141;53.240;6.580;2023-05-10T14:50:47;8.35;;;6.57;;
56233;SDS011;42141;53.240;6.580;2023-05-10T14:53:14;9.40;;;6.95;;
56233;SDS011;42141;53.240;6.580;2023-05-10T14:55:40;8.77;;;6.85;;
56233;SDS011;42141;53.240;6.580;2023-05-10T14:58:06;9.13;;;7.03;;
56233;SDS011;42141;53.240;6.580;2023-05-10T15:00:32;9.82;;;7.72;;
56233;SDS011;42141;53.240;6.580;2023-05-10T15:02:57;12.63;;;8.77;;
56233;SDS011;42141;53.240;6.580;2023-05-10T15:05:23;11.82;;;8.48;;
56233;SDS011;42141;53.240;6.580;2023-05-10T15:07:49;13.80;;;9.70;;
56233;SDS011;42141;53.240;6.580;2023-05-10T15:10:15;12.52;;;9.05;;
56233;SDS011;42141;53.240;6.580;2023-05-10T15:12:44;11.52;;;8.75;;
56233;SDS011;42141;53.240;6.580;2023-05-10T15:15:10;13.35;;;8.43;;
56233;SDS011;42141;53.240;6.580;2023-05-10T15:17:36;10.30;;;7.75;;